< < Back
Terminal Aerodrome Forecast


Current Version              Previous Versions:   1  2  3  4  5  6  7  8  9  

Terminal Aerodrome Forecast

681
FTAK31 PAJN 012108 AAA
TAFAHN
TAF AMD
PAHN 012108Z 0121/0218 08012G20KT P6SM VCSH SCT020 OVC050
     FM020000 08008KT P6SM -RA BKN015 OVC045
     FM020300 30007KT P6SM -RA BKN015 OVC025
     FM020500 30006KT 5SM RA BR BKN010 OVC020
     FM021200 08008KT 4SM RA BR OVC008
      AMD LTD TO CLD VIS AND WIND=



Latest METAR

253
SAUS70 KWBC 020300 RRA
MTRAHN
METAR KAHN 020251Z AUTO 00000KT 8SM BKN100 22/21 A3003 RMK AO2 RAB12E30
TSB13E33 SLP162 P0000 60000 T02170211 50007


USA.gov is the U.S. government's official web portal to all federal, state and local government web resources and services.